createdAt,value
2022-08-09T00:00:00.164Z,3.50
2022-08-09T00:02:34.399Z,3.10
2022-08-09T00:06:17.388Z,3.40
2022-08-09T00:07:52.396Z,3.00
2022-08-09T00:10:24.637Z,3.33
2022-08-09T00:12:53.573Z,3.20
2022-08-09T00:15:35.466Z,3.50
2022-08-09T00:18:12.381Z,3.27
2022-08-09T00:20:50.066Z,3.20
2022-08-09T00:23:58.085Z,3.50
2022-08-09T00:26:11.015Z,3.17
2022-08-09T00:28:40.627Z,3.63
2022-08-09T00:31:56.995Z,3.80
2022-08-09T00:33:58.250Z,3.40
2022-08-09T00:36:27.345Z,3.27
2022-08-09T00:38:58.072Z,3.17
2022-08-09T00:44:15.137Z,3.17
2022-08-09T00:44:26.151Z,3.03
2022-08-09T00:47:04.892Z,3.37
2022-08-09T00:49:36.920Z,2.80
2022-08-09T00:52:17.499Z,3.40
2022-08-09T00:54:48.481Z,3.60
2022-08-09T00:57:24.644Z,3.13
2022-08-09T01:00:02.793Z,3.27
2022-08-09T01:02:34.811Z,3.30
2022-08-09T01:05:14.350Z,3.13
2022-08-09T01:08:04.508Z,2.80
2022-08-09T01:10:43.701Z,3.40
2022-08-09T01:13:25.187Z,3.00
2022-08-09T01:16:13.665Z,3.70
2022-08-09T01:19:02.319Z,3.53
2022-08-09T01:21:51.083Z,3.43
2022-08-09T01:24:36.680Z,3.20
2022-08-09T01:27:11.115Z,3.90
2022-08-09T01:29:56.138Z,3.60
2022-08-09T01:32:34.571Z,3.70
2022-08-09T01:35:28.337Z,3.90
2022-08-09T01:38:10.753Z,3.50
2022-08-09T01:41:05.413Z,3.60
2022-08-09T01:43:41.858Z,3.77
2022-08-09T01:46:25.305Z,2.90
2022-08-09T01:49:10.593Z,3.30
2022-08-09T01:51:44.537Z,3.77
2022-08-09T01:54:27.694Z,3.67
2022-08-09T01:57:04.124Z,3.53
2022-08-09T01:59:50.877Z,3.33
2022-08-09T02:02:31.272Z,2.90
2022-08-09T02:05:05.550Z,3.73
2022-08-09T02:08:39.839Z,3.30
2022-08-09T02:10:42.830Z,3.50
2022-08-09T02:13:25.864Z,3.33
2022-08-09T02:16:12.532Z,3.77
2022-08-09T02:18:47.786Z,3.07
2022-08-09T02:21:22.648Z,3.13
2022-08-09T02:23:56.556Z,3.30
2022-08-09T02:26:29.160Z,3.40
2022-08-09T02:29:03.071Z,3.43
2022-08-09T02:31:39.843Z,4.00
2022-08-09T02:34:40.030Z,3.47
2022-08-09T02:37:11.930Z,3.50
2022-08-09T02:39:49.959Z,3.40
2022-08-09T02:42:31.937Z,3.47
2022-08-09T02:45:07.033Z,4.00
2022-08-09T02:47:57.771Z,3.80
2022-08-09T02:50:34.273Z,3.27
2022-08-09T02:53:10.661Z,2.97
2022-08-09T02:55:58.763Z,3.47
2022-08-09T02:58:35.783Z,3.47
2022-08-09T03:01:08.134Z,3.73
2022-08-09T03:04:17.939Z,3.57
2022-08-09T03:06:32.195Z,3.43
2022-08-09T03:09:04.017Z,2.93
2022-08-09T03:12:10.653Z,3.67
2022-08-09T03:14:28.299Z,3.27
2022-08-09T03:16:58.441Z,3.20
2022-08-09T03:19:52.749Z,3.50
2022-08-09T03:22:25.489Z,3.40
2022-08-09T03:25:06.332Z,3.53
2022-08-09T03:27:52.788Z,3.50
2022-08-09T03:30:30.235Z,3.37
2022-08-09T03:33:12.711Z,3.40
2022-08-09T03:36:12.820Z,3.50
2022-08-09T03:38:43.583Z,3.97
2022-08-09T03:41:16.301Z,3.47
2022-08-09T03:44:02.965Z,3.20
2022-08-09T03:46:36.676Z,3.93
2022-08-09T03:49:09.135Z,3.50
2022-08-09T03:51:55.247Z,3.53
2022-08-09T03:54:32.840Z,4.00
2022-08-09T03:57:18.745Z,4.10
2022-08-09T03:59:54.514Z,3.70
2022-08-09T04:02:29.928Z,4.17
2022-08-09T04:05:06.628Z,3.80
2022-08-09T04:07:52.297Z,4.77
2022-08-09T04:10:29.555Z,4.37
2022-08-09T04:13:01.265Z,3.43
2022-08-09T04:16:17.327Z,4.03
2022-08-09T04:18:21.375Z,3.50
2022-08-09T04:20:51.450Z,4.20
2022-08-09T04:23:24.723Z,4.57
2022-08-09T04:25:54.868Z,3.60
2022-08-09T04:28:34.003Z,3.40
2022-08-09T04:31:08.084Z,4.17
2022-08-09T04:33:53.241Z,3.77
2022-08-09T04:36:29.000Z,3.57
2022-08-09T04:39:01.798Z,3.87
2022-08-09T04:41:32.142Z,3.40
2022-08-09T04:44:07.019Z,3.97
2022-08-09T04:46:57.636Z,3.80
2022-08-09T04:49:52.295Z,3.27
2022-08-09T04:52:26.595Z,3.50
2022-08-09T04:55:16.963Z,3.70
2022-08-09T04:57:59.432Z,3.47
2022-08-09T05:00:34.213Z,3.03
2022-08-09T05:03:13.318Z,3.33
2022-08-09T05:06:04.461Z,3.67
2022-08-09T05:08:35.487Z,3.20
2022-08-09T05:11:07.705Z,3.70
2022-08-09T05:13:38.931Z,3.60
2022-08-09T05:16:08.888Z,3.13
2022-08-09T05:18:58.577Z,4.00
2022-08-09T05:21:29.872Z,3.00
2022-08-09T05:24:02.041Z,4.00
2022-08-09T05:26:37.414Z,3.50
2022-08-09T05:29:21.552Z,3.27
2022-08-09T05:31:59.086Z,3.40
2022-08-09T05:34:31.500Z,3.60
2022-08-09T05:37:02.405Z,3.57
2022-08-09T05:39:36.485Z,3.43
2022-08-09T05:42:17.393Z,3.77
2022-08-09T05:44:56.845Z,3.37
2022-08-09T05:47:30.285Z,3.30
2022-08-09T05:50:23.463Z,3.40
2022-08-09T05:52:53.914Z,3.60
2022-08-09T05:55:23.431Z,3.67
2022-08-09T05:57:56.942Z,4.10
2022-08-09T06:00:28.790Z,3.93
2022-08-09T06:02:58.705Z,3.37
2022-08-09T06:05:50.278Z,3.27
2022-08-09T06:08:19.534Z,3.60
2022-08-09T06:10:56.012Z,3.40
2022-08-09T06:13:28.779Z,3.43
2022-08-09T06:16:04.913Z,3.40
2022-08-09T06:18:35.044Z,3.63
2022-08-09T06:21:06.469Z,3.50
2022-08-09T06:23:57.845Z,3.60
2022-08-09T06:26:28.507Z,3.43
2022-08-09T06:29:05.210Z,3.20
2022-08-09T06:31:39.799Z,3.43
2022-08-09T06:34:23.574Z,3.47
2022-08-09T06:36:59.212Z,3.20
2022-08-09T06:39:49.165Z,2.97
2022-08-09T06:42:20.234Z,3.00
2022-08-09T06:44:55.319Z,3.63
2022-08-09T06:47:29.931Z,3.23
2022-08-09T06:50:19.074Z,3.07
2022-08-09T06:52:50.429Z,3.20
2022-08-09T06:55:23.017Z,3.17
2022-08-09T06:58:02.035Z,2.70
2022-08-09T07:00:48.978Z,3.30
2022-08-09T07:03:28.120Z,3.30
2022-08-09T07:06:03.709Z,3.20
2022-08-09T07:08:37.391Z,3.13
2022-08-09T07:11:08.650Z,3.00
2022-08-09T07:14:03.999Z,3.13
2022-08-09T07:16:42.209Z,3.13
2022-08-09T07:19:22.858Z,3.33
2022-08-09T07:21:56.974Z,3.17
2022-08-09T07:24:32.215Z,3.00
2022-08-09T07:27:27.024Z,3.03
2022-08-09T07:30:00.428Z,3.27
2022-08-09T07:32:32.838Z,3.50
2022-08-09T07:35:11.639Z,2.77
2022-08-09T07:37:44.460Z,3.23
2022-08-09T07:40:17.157Z,3.33
2022-08-09T07:42:55.745Z,3.20
2022-08-09T07:45:40.300Z,3.63
2022-08-09T07:48:28.704Z,3.37
2022-08-09T07:51:09.207Z,3.30
2022-08-09T07:54:07.515Z,3.30
2022-08-09T07:56:49.163Z,3.07
2022-08-09T07:59:34.161Z,3.03
2022-08-09T08:02:09.092Z,3.60
2022-08-09T08:04:39.933Z,2.60
2022-08-09T08:07:09.283Z,2.87
2022-08-09T08:09:51.626Z,2.70
2022-08-09T08:12:34.390Z,2.90
2022-08-09T08:15:02.733Z,2.80
2022-08-09T08:17:54.133Z,3.00
2022-08-09T08:20:28.759Z,2.83
2022-08-09T08:23:03.843Z,2.80
2022-08-09T08:25:46.659Z,3.30
2022-08-09T08:28:18.204Z,2.80
2022-08-09T08:31:04.892Z,3.40
2022-08-09T08:33:54.031Z,3.07
2022-08-09T08:36:28.752Z,3.03
2022-08-09T08:38:58.143Z,3.03
2022-08-09T08:41:50.275Z,3.23
2022-08-09T08:44:27.102Z,3.00
2022-08-09T08:46:59.655Z,3.40
2022-08-09T08:49:46.870Z,3.13
2022-08-09T08:52:57.431Z,2.73
2022-08-09T08:55:10.147Z,2.83
2022-08-09T08:57:38.849Z,3.20
2022-08-09T09:00:20.297Z,2.40
2022-08-09T09:03:08.183Z,2.80
2022-08-09T09:05:58.415Z,2.87
2022-08-09T09:08:37.894Z,2.83
2022-08-09T09:11:17.907Z,2.47
2022-08-09T09:13:56.506Z,2.60
2022-08-09T09:16:32.616Z,3.00
2022-08-09T09:22:05.151Z,2.83
2022-08-09T09:24:39.780Z,2.90
2022-08-09T09:28:02.973Z,2.80
2022-08-09T09:30:40.001Z,2.80
2022-08-09T09:33:15.990Z,2.63
2022-08-09T09:36:02.600Z,2.90
2022-08-09T09:38:47.447Z,2.63
2022-08-09T09:41:49.844Z,2.70
2022-08-09T09:44:31.858Z,2.67
2022-08-09T09:47:11.728Z,2.30
2022-08-09T09:50:07.292Z,2.50
2022-08-09T09:52:37.308Z,3.20
2022-08-09T09:55:27.613Z,2.87
2022-08-09T09:58:16.696Z,2.50
2022-08-09T10:00:54.736Z,2.77
2022-08-09T10:03:57.488Z,2.73
2022-08-09T10:06:32.270Z,2.77
2022-08-09T10:09:21.465Z,2.87
2022-08-09T10:12:07.636Z,2.63
2022-08-09T10:14:48.522Z,2.70
2022-08-09T10:17:50.585Z,2.30
2022-08-09T10:20:27.865Z,2.50
2022-08-09T10:23:18.508Z,2.70
2022-08-09T10:26:07.298Z,2.63
2022-08-09T10:28:38.971Z,2.37
2022-08-09T10:32:20.876Z,2.67
2022-08-09T10:34:10.830Z,2.37
2022-08-09T10:36:56.722Z,2.83
2022-08-09T10:39:26.896Z,2.57
2022-08-09T10:41:56.961Z,2.30
2022-08-09T10:44:30.497Z,2.97
2022-08-09T10:48:17.495Z,2.87
2022-08-09T10:50:31.475Z,2.60
2022-08-09T10:53:12.763Z,2.57
2022-08-09T10:55:58.235Z,2.63
2022-08-09T10:58:59.558Z,2.63
2022-08-09T11:03:11.583Z,2.15
2022-08-09T11:04:32.743Z,2.23
2022-08-09T11:07:55.791Z,2.45
2022-08-09T11:10:17.809Z,2.50
2022-08-09T11:13:49.063Z,2.03
2022-08-09T11:16:41.070Z,1.92
2022-08-09T11:19:11.354Z,2.05
2022-08-09T11:22:10.443Z,2.25
2022-08-09T11:25:08.957Z,2.00
2022-08-09T11:28:04.305Z,2.25
2022-08-09T11:30:38.211Z,2.20
2022-08-09T11:33:26.258Z,2.22
2022-08-09T11:35:58.717Z,2.05
2022-08-09T11:38:32.993Z,1.92
2022-08-09T11:41:22.509Z,2.00
2022-08-09T11:43:52.719Z,2.17
2022-08-09T11:46:32.732Z,1.90
2022-08-09T11:49:05.022Z,2.10
2022-08-09T11:53:16.564Z,2.15
2022-08-09T11:55:51.476Z,2.15
2022-08-09T11:58:50.251Z,2.03
2022-08-09T12:01:37.865Z,1.80
2022-08-09T12:04:23.553Z,1.80
2022-08-09T12:06:57.852Z,2.20
2022-08-09T12:09:33.582Z,2.10
2022-08-09T12:12:12.904Z,2.10
2022-08-09T12:15:08.153Z,1.88
2022-08-09T12:17:44.494Z,2.08
2022-08-09T12:20:21.887Z,2.20
2022-08-09T12:22:55.600Z,2.20
2022-08-09T12:25:34.695Z,1.90
2022-08-09T12:29:14.152Z,2.08
2022-08-09T12:31:11.235Z,2.10
2022-08-09T12:34:00.963Z,2.10
2022-08-09T12:36:32.002Z,1.80
2022-08-09T12:39:02.634Z,2.10
2022-08-09T12:41:39.504Z,2.42
2022-08-09T12:44:13.180Z,2.08
2022-08-09T12:46:49.343Z,1.70
2022-08-09T12:49:21.410Z,2.13
2022-08-09T12:52:01.039Z,2.00
2022-08-09T12:55:03.159Z,1.80
2022-08-09T12:57:39.592Z,2.10
2022-08-09T13:00:25.162Z,2.05
2022-08-09T13:02:57.731Z,1.88
2022-08-09T13:05:51.431Z,1.90
2022-08-09T13:08:40.374Z,2.33
2022-08-09T13:11:22.761Z,2.05
2022-08-09T13:14:41.250Z,2.22
2022-08-09T13:16:50.921Z,1.90
2022-08-09T13:20:10.070Z,2.05
2022-08-09T13:22:37.217Z,1.85
2022-08-09T13:25:08.065Z,1.67
2022-08-09T13:27:55.028Z,2.17
2022-08-09T13:30:50.650Z,1.98
2022-08-09T13:33:24.667Z,1.63
2022-08-09T13:36:24.422Z,1.73
2022-08-09T13:39:08.175Z,2.03
2022-08-09T13:41:57.881Z,1.63
2022-08-09T13:44:29.043Z,1.98
2022-08-09T13:47:28.788Z,2.35
2022-08-09T13:49:58.235Z,1.70
2022-08-09T13:52:30.674Z,1.90
2022-08-09T13:55:04.536Z,1.88
2022-08-09T13:57:40.255Z,2.00
2022-08-09T14:00:16.495Z,1.70
2022-08-09T14:03:03.977Z,2.38
2022-08-09T14:06:00.333Z,2.22
2022-08-09T14:08:27.096Z,1.77
2022-08-09T14:10:57.308Z,1.92
2022-08-09T14:14:16.450Z,1.80
2022-08-09T14:16:17.729Z,1.92
2022-08-09T14:18:50.607Z,1.52
2022-08-09T14:21:24.258Z,1.95
2022-08-09T14:23:57.117Z,1.95
2022-08-09T14:26:32.917Z,1.80
2022-08-09T14:29:07.903Z,1.85
2022-08-09T14:31:55.186Z,1.75
2022-08-09T14:34:27.423Z,1.80
2022-08-09T14:37:06.508Z,1.70
2022-08-09T14:39:47.491Z,1.70
2022-08-09T14:42:40.578Z,1.98
2022-08-09T14:46:39.832Z,1.88
2022-08-09T14:48:02.371Z,1.85
2022-08-09T14:50:34.227Z,1.95
2022-08-09T14:53:11.736Z,1.95
2022-08-09T14:55:42.436Z,1.77
2022-08-09T14:58:16.651Z,2.10
2022-08-09T15:00:48.503Z,1.80
2022-08-09T15:03:21.043Z,1.98
2022-08-09T15:05:54.814Z,1.90
2022-08-09T15:08:26.634Z,1.70
2022-08-09T15:11:01.222Z,1.55
2022-08-09T15:13:56.189Z,1.60
2022-08-09T15:16:22.423Z,1.85
2022-08-09T15:18:52.441Z,1.58
2022-08-09T15:21:57.167Z,1.60
2022-08-09T15:24:16.210Z,1.77
2022-08-09T15:26:47.370Z,1.70
2022-08-09T15:30:55.390Z,1.77
2022-08-09T15:32:39.090Z,1.48
2022-08-09T15:35:00.863Z,1.90
2022-08-09T15:37:37.144Z,1.70
2022-08-09T15:40:31.675Z,1.73
2022-08-09T15:43:01.936Z,2.28
2022-08-09T15:45:30.958Z,1.50
2022-08-09T15:48:28.820Z,1.65
2022-08-09T15:50:58.035Z,2.47
2022-08-09T15:54:03.984Z,1.95
2022-08-09T15:56:30.815Z,1.60
2022-08-09T15:59:00.139Z,1.85
2022-08-09T16:01:31.505Z,1.80
2022-08-09T16:04:04.021Z,2.25
2022-08-09T16:06:37.343Z,2.10
2022-08-09T16:09:06.789Z,1.80
2022-08-09T16:11:36.452Z,1.73
2022-08-09T16:14:08.095Z,1.75
2022-08-09T16:16:38.182Z,1.70
2022-08-09T16:19:08.656Z,1.90
2022-08-09T16:21:37.465Z,1.73
2022-08-09T16:24:20.052Z,1.70
2022-08-09T16:26:58.194Z,1.85
2022-08-09T16:29:36.759Z,1.75
2022-08-09T16:32:18.709Z,1.90
2022-08-09T16:34:58.118Z,1.88
2022-08-09T16:37:55.133Z,1.90
2022-08-09T16:40:29.472Z,2.10
2022-08-09T16:43:06.919Z,2.00
2022-08-09T16:45:35.375Z,1.80
2022-08-09T16:48:39.026Z,1.90
2022-08-09T16:51:08.142Z,1.70
2022-08-09T16:54:02.551Z,1.97
2022-08-09T16:56:31.448Z,2.00
2022-08-09T16:59:10.544Z,1.73
2022-08-09T17:01:42.027Z,1.83
2022-08-09T17:04:25.873Z,1.80
2022-08-09T17:08:40.630Z,1.70
2022-08-09T17:09:47.905Z,1.93
2022-08-09T17:12:16.948Z,1.90
2022-08-09T17:14:48.590Z,1.83
2022-08-09T17:17:26.737Z,2.27
2022-08-09T17:20:32.340Z,1.50
2022-08-09T17:22:51.972Z,2.13
2022-08-09T17:25:23.735Z,1.77
2022-08-09T17:27:55.024Z,1.70
2022-08-09T17:30:28.328Z,1.50
2022-08-09T17:33:04.599Z,2.00
2022-08-09T17:35:40.822Z,1.70
2022-08-09T17:38:29.158Z,1.70
2022-08-09T17:40:58.067Z,2.17
2022-08-09T17:43:35.427Z,1.50
2022-08-09T17:46:09.956Z,2.00
2022-08-09T17:48:52.183Z,1.97
2022-08-09T17:51:21.979Z,1.83
2022-08-09T17:53:55.318Z,1.50
2022-08-09T17:56:28.956Z,1.73
2022-08-09T17:59:09.478Z,2.00
2022-08-09T18:02:06.634Z,1.80
2022-08-09T18:04:31.282Z,1.93
2022-08-09T18:06:59.959Z,1.67
2022-08-09T18:09:41.002Z,1.77
2022-08-09T18:12:17.386Z,1.93
2022-08-09T18:14:54.431Z,1.73
2022-08-09T18:18:01.455Z,1.73
2022-08-09T18:20:59.400Z,1.70
2022-08-09T18:23:04.952Z,2.10
2022-08-09T18:25:50.135Z,1.70
2022-08-09T18:30:40.040Z,2.00
2022-08-09T18:31:13.559Z,1.87
2022-08-09T18:33:53.305Z,2.53
2022-08-09T18:36:25.756Z,1.90
2022-08-09T18:39:02.776Z,2.00
2022-08-09T18:41:34.356Z,2.00
2022-08-09T18:44:13.215Z,1.90
2022-08-09T18:46:50.534Z,1.87
2022-08-09T18:49:43.397Z,1.70
2022-08-09T18:52:18.729Z,1.73
2022-08-09T18:54:53.874Z,1.97
2022-08-09T18:57:23.154Z,1.80
2022-08-09T18:59:55.182Z,1.60
2022-08-09T19:02:31.678Z,2.20
2022-08-09T19:05:03.861Z,1.80
2022-08-09T19:08:04.894Z,1.80
2022-08-09T19:10:37.004Z,2.13
2022-08-09T19:13:20.302Z,2.10
2022-08-09T19:15:58.703Z,1.83
2022-08-09T19:18:33.976Z,2.30
2022-08-09T19:21:10.587Z,2.37
2022-08-09T19:24:32.987Z,2.17
2022-08-09T19:26:31.324Z,2.00
2022-08-09T19:29:03.128Z,2.33
2022-08-09T19:31:45.086Z,2.00
2022-08-09T19:34:21.370Z,1.87
2022-08-09T19:36:53.416Z,2.10
2022-08-09T19:39:42.885Z,1.87
2022-08-09T19:42:15.160Z,1.90
2022-08-09T19:44:50.546Z,1.77
2022-08-09T19:47:22.797Z,1.70
2022-08-09T19:50:09.776Z,2.27
2022-08-09T19:52:51.502Z,2.43
2022-08-09T19:55:25.553Z,2.47
2022-08-09T19:57:54.236Z,2.20
2022-08-09T20:00:24.746Z,2.50
2022-08-09T20:04:12.246Z,1.93
2022-08-09T20:05:46.787Z,1.90
2022-08-09T20:08:25.027Z,2.00
2022-08-09T20:11:04.360Z,1.87
2022-08-09T20:13:37.058Z,2.20
2022-08-09T20:16:36.411Z,1.97
2022-08-09T20:19:42.129Z,1.83
2022-08-09T20:21:56.376Z,2.20
2022-08-09T20:24:29.610Z,2.13
2022-08-09T20:27:07.842Z,2.23
2022-08-09T20:29:38.760Z,2.30
2022-08-09T20:32:28.733Z,2.13
2022-08-09T20:34:58.043Z,1.87
2022-08-09T20:37:37.114Z,1.90
2022-08-09T20:40:24.762Z,1.70
2022-08-09T20:43:00.087Z,2.30
2022-08-09T20:45:56.732Z,2.17
2022-08-09T20:48:28.883Z,2.20
2022-08-09T20:50:59.580Z,1.90
2022-08-09T20:53:36.565Z,1.97
2022-08-09T20:56:20.946Z,2.20
2022-08-09T20:58:58.966Z,2.20
2022-08-09T21:01:34.560Z,2.20
2022-08-09T21:05:55.219Z,2.13
2022-08-09T21:07:11.498Z,1.67
2022-08-09T21:09:45.523Z,2.37
2022-08-09T21:14:46.264Z,2.40
2022-08-09T21:18:23.757Z,1.90
2022-08-09T21:20:22.463Z,2.20
2022-08-09T21:22:54.935Z,2.10
2022-08-09T21:25:44.024Z,2.23
2022-08-09T21:28:33.729Z,2.30
2022-08-09T21:31:17.003Z,2.27
2022-08-09T21:33:51.476Z,2.70
2022-08-09T21:36:23.538Z,2.30
2022-08-09T21:38:57.249Z,2.13
2022-08-09T21:42:03.660Z,2.53
2022-08-09T21:44:32.781Z,2.73
2022-08-09T21:47:05.816Z,2.27
2022-08-09T21:49:39.229Z,2.57
2022-08-09T21:52:14.755Z,3.00
2022-08-09T21:54:49.496Z,2.50
2022-08-09T21:57:37.071Z,2.40
2022-08-09T22:00:15.204Z,2.43
2022-08-09T22:02:44.716Z,2.40
2022-08-09T22:05:36.030Z,2.83
2022-08-09T22:08:13.942Z,2.73
2022-08-09T22:11:04.794Z,2.90
2022-08-09T22:13:35.839Z,2.70
2022-08-09T22:16:10.700Z,2.57
2022-08-09T22:18:53.503Z,2.67
2022-08-09T22:21:45.407Z,2.37
2022-08-09T22:24:17.067Z,2.20
2022-08-09T22:26:51.471Z,2.30
2022-08-09T22:29:27.025Z,2.53
2022-08-09T22:32:02.363Z,2.20
2022-08-09T22:34:30.812Z,2.50
2022-08-09T22:37:00.910Z,2.70
2022-08-09T22:39:55.809Z,2.77
2022-08-09T22:42:22.398Z,3.00
2022-08-09T22:45:00.444Z,2.63
2022-08-09T22:48:14.691Z,2.67
2022-08-09T22:50:33.441Z,2.93
2022-08-09T22:53:04.269Z,2.83
2022-08-09T22:56:06.108Z,2.70
2022-08-09T22:58:32.499Z,2.60
2022-08-09T23:01:02.872Z,3.00
2022-08-09T23:04:05.708Z,2.77
2022-08-09T23:06:30.063Z,2.83
2022-08-09T23:09:07.277Z,2.77
2022-08-09T23:11:36.039Z,2.63
2022-08-09T23:14:10.168Z,2.40
2022-08-09T23:16:45.421Z,2.57
2022-08-09T23:19:15.562Z,2.50
2022-08-09T23:21:43.945Z,2.97
2022-08-09T23:24:12.514Z,2.67
2022-08-09T23:26:41.727Z,2.60
2022-08-09T23:29:15.510Z,2.83
2022-08-09T23:31:43.965Z,2.87
2022-08-09T23:34:14.154Z,2.50
2022-08-09T23:36:42.831Z,3.17
2022-08-09T23:39:11.020Z,2.87
2022-08-09T23:41:39.252Z,2.87
2022-08-09T23:44:07.636Z,3.00
2022-08-09T23:46:36.232Z,2.67
2022-08-09T23:49:05.187Z,2.80
2022-08-09T23:51:35.010Z,3.13
2022-08-09T23:54:03.710Z,2.70
2022-08-09T23:56:53.553Z,2.90
2022-08-09T23:59:21.857Z,3.20
